Terminal Aerodrome Forecast
Issued by NWS

Home | Current Version | Previous Version | Text Only | Print | Product List | Glossary On
Versions: 1 2 3 4 5 6 7 8 9 10 11 12 13 14 15 16 17 18 19
000
FTAK31 PAJN 181700
TAFAKT
TAF
PAKT 181725Z 1818/1918 14015KT 6SM -RA BR SCT006 OVC015
      WS020/14035KT
     FM182000 14024G34KT 4SM RA BR OVC012 WS020/15045KT
     FM190300 14014KT P6SM -RA SCT015 OVC035
      AMD LTD TO CLD VIS AND WIND 1906/1915=

USA.gov is the U.S. government's official web portal to all federal, state and local government web resources and services.